Time;durP1;ratioP1;P1;durP2;ratioP2;P2;SDS_P1;SDS_P2;PMS_P1;PMS_P2;Temp;Humidity;BMP_temperature;BMP_pressure;BME280_temperature;BME280_humidity;BME280_pressure;Samples;Min_cycle;Max_cycle;Signal;HPM_P1;HPM_P2
2024/03/23 00:00:00;;;;;;;;;;;10.70;99.90;;;;;;2059078;28;19922;-74
2024/03/23 00:01:01;;;;;;;;;;;10.80;99.90;;;;;;2068695;28;20004;-74
2024/03/23 00:02:03;;;;;;;;;;;10.80;99.90;;;;;;2068074;28;19971;-77
2024/03/23 00:03:04;;;;;;;;;;;10.70;99.90;;;;;;2071166;28;19959;-76
2024/03/23 00:04:05;;;;;;;;;;;10.70;99.90;;;;;;2067513;28;20176;-78
2024/03/23 00:05:06;;;;;;;;;;;10.70;99.90;;;;;;2070648;28;20456;-77
2024/03/23 00:06:07;;;;;;;;;;;10.70;99.90;;;;;;2059372;28;19913;-75
2024/03/23 00:07:08;;;;;;;;;;;10.70;99.90;;;;;;2059008;28;20063;-76
2024/03/23 00:08:09;;;;;;;;;;;10.60;99.90;;;;;;2067678;28;19918;-76
2024/03/23 00:09:10;;;;;;;;;;;10.60;99.90;;;;;;2067134;28;20469;-76
2024/03/23 00:10:12;;;;;;;;;;;10.60;99.90;;;;;;2058830;28;19918;-77
2024/03/23 00:11:13;;;;;;;;;;;10.60;99.90;;;;;;2067081;28;19917;-76
2024/03/23 00:12:14;;;;;;;;;;;10.60;99.90;;;;;;2066959;28;19918;-77
2024/03/23 00:13:15;;;;;;;;;;;10.60;99.90;;;;;;2067271;28;20317;-76
2024/03/23 00:14:16;;;;;;;;;;;10.60;99.90;;;;;;2067580;28;19917;-77
2024/03/23 00:15:17;;;;;;;;;;;10.60;99.90;;;;;;2067823;28;19922;-76
2024/03/23 00:16:18;;;;;;;;;;;10.60;99.90;;;;;;2067696;28;19918;-77
2024/03/23 00:17:19;;;;;;;;;;;10.60;99.90;;;;;;2067095;28;20316;-81
2024/03/23 00:18:23;;;;;;;;;;;10.50;99.90;;;;;;2048499;28;19918;-76
2024/03/23 00:19:24;;;;;;;;;;;10.60;99.90;;;;;;2058715;28;19917;-77
2024/03/23 00:20:25;;;;;;;;;;;10.50;99.90;;;;;;2066759;28;19979;-77
2024/03/23 00:21:26;;;;;;;;;;;10.50;99.90;;;;;;2066687;28;19922;-76
2024/03/23 00:22:27;;;;;;;;;;;10.40;99.90;;;;;;2058221;28;19963;-78
2024/03/23 00:23:28;;;;;;;;;;;10.40;99.90;;;;;;2058050;28;19918;-77
2024/03/23 00:24:30;;;;;;;;;;;10.40;99.90;;;;;;2061137;28;20825;-78
2024/03/23 00:25:31;;;;;;;;;;;10.30;99.90;;;;;;2066025;28;19929;-78
2024/03/23 00:26:32;;;;;;;;;;;10.30;99.90;;;;;;2073223;28;19929;-77
2024/03/23 00:27:33;;;;;;;;;;;10.30;99.90;;;;;;2066087;28;20012;-77
2024/03/23 00:28:34;;;;;;;;;;;10.20;99.90;;;;;;2066591;28;19975;-78
2024/03/23 00:29:35;;;;;;;;;;;10.20;99.90;;;;;;2067586;28;20518;-77
2024/03/23 00:30:37;;;;;;;;;;;10.10;99.90;;;;;;2066313;28;19914;-77
2024/03/23 00:31:40;;;;;;;;;;;10.10;99.90;;;;;;2063576;28;19917;-77
2024/03/23 00:32:41;;;;;;;;;;;10.00;99.90;;;;;;2066604;28;19913;-77
2024/03/23 00:33:43;;;;;;;;;;;10.00;99.90;;;;;;2058797;28;19921;-77
2024/03/23 00:34:44;;;;;;;;;;;10.00;99.90;;;;;;2065655;28;19924;-76
2024/03/23 00:35:45;;;;;;;;;;;9.90;99.90;;;;;;2066518;28;20277;-78
2024/03/23 00:36:46;;;;;;;;;;;9.90;99.90;;;;;;2063964;28;19929;-76
2024/03/23 00:37:47;;;;;;;;;;;9.90;99.90;;;;;;2066688;28;19925;-76
2024/03/23 00:38:48;;;;;;;;;;;9.90;99.90;;;;;;2066252;28;19967;-77
2024/03/23 00:39:49;;;;;;;;;;;9.80;99.90;;;;;;2066565;28;20604;-77
2024/03/23 00:40:50;;;;;;;;;;;9.80;99.90;;;;;;2066345;28;19963;-76
2024/03/23 00:41:51;;;;;;;;;;;9.70;99.90;;;;;;2060065;28;19922;-76
2024/03/23 00:42:52;;;;;;;;;;;9.70;99.90;;;;;;2057825;28;20015;-77
2024/03/23 00:43:53;;;;;;;;;;;9.60;99.90;;;;;;2066686;28;19917;-76
2024/03/23 00:44:54;;;;;;;;;;;9.60;99.90;;;;;;2067197;28;20455;-76
2024/03/23 00:45:55;;;;;;;;;;;9.60;99.90;;;;;;2067372;28;20300;-76
2024/03/23 00:46:56;;;;;;;;;;;9.50;99.90;;;;;;2067466;28;20480;-76
2024/03/23 00:47:57;;;;;;;;;;;9.50;99.90;;;;;;2064982;28;19986;-78
2024/03/23 00:48:58;;;;;;;;;;;9.50;99.90;;;;;;2066222;28;19917;-77
2024/03/23 00:50:00;;;;;;;;;;;9.50;99.90;;;;;;2066844;28;19914;-76
2024/03/23 00:51:01;;;;;;;;;;;9.50;99.90;;;;;;2066965;28;19986;-76
2024/03/23 00:52:02;;;;;;;;;;;9.50;99.90;;;;;;2065111;28;19914;-77
2024/03/23 00:53:03;;;;;;;;;;;9.50;99.90;;;;;;2058375;28;19921;-76
2024/03/23 00:54:03;;;;;;;;;;;9.40;99.90;;;;;;2066638;28;19984;-76
2024/03/23 00:55:04;;;;;;;;;;;9.40;99.90;;;;;;2064754;28;19929;-76
2024/03/23 00:56:04;;;;;;;;;;;9.40;99.90;;;;;;2066683;28;19914;-76
2024/03/23 00:57:05;;;;;;;;;;;9.40;99.90;;;;;;2058272;28;19917;-76
2024/03/23 00:58:05;;;;;;;;;;;9.40;99.90;;;;;;2066177;28;19918;-76
2024/03/23 00:59:06;;;;;;;;;;;9.40;99.90;;;;;;2067041;28;20287;-76
2024/03/23 01:00:06;;;;;;;;;;;9.50;99.90;;;;;;2066126;28;19921;-77
2024/03/23 01:01:07;;;;;;;;;;;9.50;99.90;;;;;;2066042;28;19918;-76
2024/03/23 01:02:07;;;;;;;;;;;9.50;99.90;;;;;;2066435;28;19921;-77
2024/03/23 01:03:08;;;;;;;;;;;9.50;99.90;;;;;;2066340;28;20471;-76
2024/03/23 01:04:08;;;;;;;;;;;9.60;99.90;;;;;;2066489;28;19913;-76
2024/03/23 01:05:09;;;;;;;;;;;9.50;99.90;;;;;;2066237;28;19914;-77
2024/03/23 01:06:09;;;;;;;;;;;9.60;99.90;;;;;;2058687;28;19941;-76
2024/03/23 01:07:10;;;;;;;;;;;9.50;99.90;;;;;;2066725;28;19920;-77
2024/03/23 01:08:10;;;;;;;;;;;9.60;99.90;;;;;;2066352;28;20136;-76
2024/03/23 01:09:11;;;;;;;;;;;9.50;99.90;;;;;;2066567;28;19948;-75
2024/03/23 01:10:11;;;;;;;;;;;9.50;99.90;;;;;;2066591;28;20714;-75
2024/03/23 01:11:12;;;;;;;;;;;9.50;99.90;;;;;;2066532;28;19965;-76
2024/03/23 01:12:12;;;;;;;;;;;9.50;99.90;;;;;;2067404;28;20350;-77
2024/03/23 01:13:13;;;;;;;;;;;9.50;99.90;;;;;;2068129;28;19925;-78
2024/03/23 01:14:13;;;;;;;;;;;9.40;99.90;;;;;;2066430;28;19968;-77
2024/03/23 01:15:14;;;;;;;;;;;9.50;99.90;;;;;;2066736;28;19921;-77
2024/03/23 01:16:14;;;;;;;;;;;9.40;99.90;;;;;;2058912;28;19914;-76
2024/03/23 01:17:15;;;;;;;;;;;9.40;99.90;;;;;;2066484;28;19920;-77
2024/03/23 01:18:15;;;;;;;;;;;9.40;99.90;;;;;;2067066;28;19914;-78
2024/03/23 01:19:16;;;;;;;;;;;9.40;99.90;;;;;;2066868;28;20206;-77
2024/03/23 01:20:16;;;;;;;;;;;9.30;99.90;;;;;;2062108;28;19918;-77
2024/03/23 01:21:17;;;;;;;;;;;9.30;99.90;;;;;;2062421;28;19917;-76
2024/03/23 01:22:17;;;;;;;;;;;9.30;99.90;;;;;;2066522;28;19989;-77
2024/03/23 01:23:18;;;;;;;;;;;9.20;99.90;;;;;;2058530;28;19993;-77
2024/03/23 01:24:18;;;;;;;;;;;9.30;99.90;;;;;;2066704;28;19943;-75
2024/03/23 01:25:19;;;;;;;;;;;9.30;99.90;;;;;;2066904;28;19914;-77
2024/03/23 01:26:19;;;;;;;;;;;9.30;99.90;;;;;;2067467;28;19944;-78
2024/03/23 01:27:20;;;;;;;;;;;9.20;99.90;;;;;;2066470;28;19921;-77
2024/03/23 01:28:20;;;;;;;;;;;9.20;99.90;;;;;;2066115;28;20099;-78
2024/03/23 01:29:21;;;;;;;;;;;9.20;99.90;;;;;;2066938;28;19964;-78
2024/03/23 01:30:21;;;;;;;;;;;9.20;99.90;;;;;;2066758;28;19917;-78
2024/03/23 01:31:22;;;;;;;;;;;9.20;99.90;;;;;;2062833;28;19922;-78
2024/03/23 01:32:22;;;;;;;;;;;9.10;99.90;;;;;;2056742;28;19922;-78
2024/03/23 01:33:23;;;;;;;;;;;9.10;99.90;;;;;;2058536;28;20000;-78
2024/03/23 01:34:24;;;;;;;;;;;9.20;99.90;;;;;;2062933;28;19947;-77
2024/03/23 01:35:25;;;;;;;;;;;9.20;99.90;;;;;;2058819;28;20013;-77
2024/03/23 01:36:25;;;;;;;;;;;9.10;99.90;;;;;;2066518;28;19914;-78
2024/03/23 01:37:26;;;;;;;;;;;9.10;99.90;;;;;;2067368;28;19913;-77
2024/03/23 01:38:26;;;;;;;;;;;9.10;99.90;;;;;;2067348;28;20430;-77
2024/03/23 01:39:27;;;;;;;;;;;9.10;99.90;;;;;;2060623;28;20589;-77
2024/03/23 01:40:31;;;;;;;;;;;9.10;99.90;;;;;;2058785;28;20021;-77
2024/03/23 01:41:31;;;;;;;;;;;9.10;99.90;;;;;;2059839;28;19914;-77
2024/03/23 01:42:32;;;;;;;;;;;9.10;99.90;;;;;;2066498;28;19918;-77
2024/03/23 01:43:32;;;;;;;;;;;9.00;99.90;;;;;;2066504;28;19921;-78
2024/03/23 01:44:33;;;;;;;;;;;9.00;99.90;;;;;;2066476;28;19917;-77
2024/03/23 01:45:34;;;;;;;;;;;9.00;99.90;;;;;;2066846;28;20019;-77
2024/03/23 01:46:38;;;;;;;;;;;9.00;99.90;;;;;;2058569;28;19936;-76
2024/03/23 01:47:38;;;;;;;;;;;9.00;99.90;;;;;;2058994;28;20001;-77
2024/03/23 01:48:39;;;;;;;;;;;9.00;99.90;;;;;;2067154;28;19970;-77
2024/03/23 01:49:39;;;;;;;;;;;9.00;99.90;;;;;;2067195;28;20372;-77
2024/03/23 01:50:39;;;;;;;;;;;9.00;99.90;;;;;;2067318;28;20268;-77
2024/03/23 01:51:41;;;;;;;;;;;9.00;99.90;;;;;;2066384;28;19975;-77
2024/03/23 01:52:41;;;;;;;;;;;8.90;99.90;;;;;;2066505;28;20253;-76
2024/03/23 01:53:42;;;;;;;;;;;8.90;99.90;;;;;;2067195;28;20558;-77
2024/03/23 01:54:43;;;;;;;;;;;8.90;99.90;;;;;;2061007;28;20600;-77
2024/03/23 01:55:43;;;;;;;;;;;8.90;99.90;;;;;;2059957;28;19928;-77
2024/03/23 01:56:44;;;;;;;;;;;8.90;99.90;;;;;;2067150;28;19952;-76
2024/03/23 01:57:44;;;;;;;;;;;8.90;99.90;;;;;;2067079;28;19917;-76
2024/03/23 01:58:45;;;;;;;;;;;8.90;99.90;;;;;;2067185;28;19968;-76
2024/03/23 01:59:45;;;;;;;;;;;9.00;99.90;;;;;;2066152;28;19997;-76
2024/03/23 02:00:46;;;;;;;;;;;9.00;99.90;;;;;;2062169;28;20001;-76
2024/03/23 02:01:46;;;;;;;;;;;9.10;99.90;;;;;;2061846;28;20273;-76
2024/03/23 02:02:48;;;;;;;;;;;9.10;99.90;;;;;;2058254;28;19925;-76
2024/03/23 02:03:49;;;;;;;;;;;9.10;99.90;;;;;;2066590;28;20427;-76
2024/03/23 02:04:49;;;;;;;;;;;9.10;99.90;;;;;;2068094;28;19920;-76
2024/03/23 02:05:50;;;;;;;;;;;9.10;99.90;;;;;;2068540;28;20323;-76
2024/03/23 02:06:51;;;;;;;;;;;9.10;99.90;;;;;;2068231;28;19917;-75
2024/03/23 02:07:51;;;;;;;;;;;9.20;99.90;;;;;;2070099;28;19913;-75
2024/03/23 02:08:52;;;;;;;;;;;9.20;99.90;;;;;;2060606;28;19925;-76
2024/03/23 02:09:53;;;;;;;;;;;9.20;99.90;;;;;;2060327;28;19953;-78
2024/03/23 02:10:53;;;;;;;;;;;9.20;99.90;;;;;;2072195;28;19920;-77
2024/03/23 02:11:54;;;;;;;;;;;9.20;99.90;;;;;;2069379;28;19971;-78
2024/03/23 02:12:54;;;;;;;;;;;9.20;99.90;;;;;;2068251;28;19913;-78
2024/03/23 02:13:55;;;;;;;;;;;9.20;99.90;;;;;;2068000;28;19941;-75
2024/03/23 02:14:55;;;;;;;;;;;9.20;99.90;;;;;;2073134;28;19913;-77
2024/03/23 02:15:56;;;;;;;;;;;9.20;99.90;;;;;;2068564;28;19917;-77
2024/03/23 02:16:57;;;;;;;;;;;9.20;99.90;;;;;;2064393;28;19918;-76
2024/03/23 02:17:57;;;;;;;;;;;9.20;99.90;;;;;;2068236;28;20407;-78
2024/03/23 02:18:57;;;;;;;;;;;9.20;99.90;;;;;;2068315;28;19960;-78
2024/03/23 02:19:58;;;;;;;;;;;9.30;99.90;;;;;;2069006;28;19953;-76
2024/03/23 02:20:58;;;;;;;;;;;9.30;99.90;;;;;;2068494;28;19925;-76
2024/03/23 02:21:59;;;;;;;;;;;9.30;99.90;;;;;;2067958;28;20419;-76
2024/03/23 02:23:00;;;;;;;;;;;9.30;99.90;;;;;;2068492;28;19917;-76
2024/03/23 02:24:00;;;;;;;;;;;9.30;99.90;;;;;;2068072;28;20020;-77
2024/03/23 02:25:01;;;;;;;;;;;9.20;99.90;;;;;;2068074;28;19914;-76
2024/03/23 02:26:03;;;;;;;;;;;9.30;99.90;;;;;;2068068;28;20138;-76
2024/03/23 02:27:03;;;;;;;;;;;9.30;99.90;;;;;;2059745;28;20486;-76
2024/03/23 02:28:04;;;;;;;;;;;9.30;99.90;;;;;;2059746;28;19944;-77
2024/03/23 02:29:04;;;;;;;;;;;9.30;99.90;;;;;;2067723;28;19988;-77
2024/03/23 02:30:05;;;;;;;;;;;9.30;99.90;;;;;;2068151;28;20300;-78
2024/03/23 02:31:06;;;;;;;;;;;9.30;99.90;;;;;;2066132;28;19920;-78
2024/03/23 02:32:08;;;;;;;;;;;9.30;99.90;;;;;;2068482;28;20410;-77
2024/03/23 02:33:09;;;;;;;;;;;9.30;99.90;;;;;;2068575;28;20048;-77
2024/03/23 02:34:09;;;;;;;;;;;9.30;99.90;;;;;;2072813;28;19952;-77
2024/03/23 02:35:10;;;;;;;;;;;9.30;99.90;;;;;;2068628;28;19917;-78
2024/03/23 02:36:10;;;;;;;;;;;9.30;99.90;;;;;;2068497;28;19913;-78
2024/03/23 02:37:11;;;;;;;;;;;9.30;99.90;;;;;;2068705;28;19917;-77
2024/03/23 02:38:12;;;;;;;;;;;9.30;99.90;;;;;;2068059;28;19914;-77
2024/03/23 02:39:12;;;;;;;;;;;9.30;99.90;;;;;;2067960;28;20187;-77
2024/03/23 02:40:13;;;;;;;;;;;9.30;99.90;;;;;;2068857;28;20280;-83
2024/03/23 02:41:14;;;;;;;;;;;9.30;99.90;;;;;;2069374;28;20513;-83
2024/03/23 02:42:17;;;;;;;;;;;9.30;99.90;;;;;;2061900;28;19943;-83
2024/03/23 02:43:18;;;;;;;;;;;9.20;99.90;;;;;;2062632;28;20304;-83
2024/03/23 02:44:19;;;;;;;;;;;9.30;99.90;;;;;;2061867;28;20104;-83
2024/03/23 02:45:20;;;;;;;;;;;9.30;99.90;;;;;;2066532;28;19969;-82
2024/03/23 02:46:21;;;;;;;;;;;9.30;99.90;;;;;;2053452;28;19921;-83
2024/03/23 02:47:23;;;;;;;;;;;9.30;99.90;;;;;;2045429;28;19926;-83
2024/03/23 02:48:24;;;;;;;;;;;9.30;99.90;;;;;;2061260;28;20380;-82
2024/03/23 02:49:25;;;;;;;;;;;9.30;99.90;;;;;;2052214;28;20444;-82
2024/03/23 02:50:27;;;;;;;;;;;9.30;99.90;;;;;;2054607;28;19961;-83
2024/03/23 02:51:28;;;;;;;;;;;9.30;99.90;;;;;;2052916;28;19925;-82
2024/03/23 02:52:29;;;;;;;;;;;9.40;99.90;;;;;;2052979;28;19918;-83
2024/03/23 02:53:29;;;;;;;;;;;9.30;99.90;;;;;;2047901;28;20530;-84
2024/03/23 02:54:30;;;;;;;;;;;9.30;99.90;;;;;;2057883;28;19914;-83
2024/03/23 02:55:31;;;;;;;;;;;9.40;99.90;;;;;;2060310;28;20285;-83
2024/03/23 02:56:32;;;;;;;;;;;9.30;99.90;;;;;;2056384;28;19922;-83
2024/03/23 02:57:33;;;;;;;;;;;9.40;99.90;;;;;;2060736;28;19918;-82
2024/03/23 02:58:34;;;;;;;;;;;9.30;99.90;;;;;;2068640;28;19926;-82
2024/03/23 02:59:35;;;;;;;;;;;9.30;99.90;;;;;;2060882;28;19914;-82
2024/03/23 03:00:38;;;;;;;;;;;9.30;99.90;;;;;;2052837;28;20108;-82
2024/03/23 03:01:39;;;;;;;;;;;9.40;99.90;;;;;;2057557;28;20343;-83
2024/03/23 03:02:39;;;;;;;;;;;9.40;99.90;;;;;;2060626;28;19992;-82
2024/03/23 03:03:40;;;;;;;;;;;9.40;99.90;;;;;;2053547;28;19918;-83
2024/03/23 03:04:47;;;;;;;;;;;9.40;99.90;;;;;;2053644;28;19922;-83
2024/03/23 03:05:48;;;;;;;;;;;9.40;99.90;;;;;;2053075;28;19910;-83
2024/03/23 03:06:49;;;;;;;;;;;9.30;99.90;;;;;;2051929;28;19950;-83
2024/03/23 03:07:55;;;;;;;;;;;9.30;99.90;;;;;;2045198;28;19929;-83
2024/03/23 03:08:59;;;;;;;;;;;9.30;99.90;;;;;;2053693;28;19914;-83
2024/03/23 03:10:00;;;;;;;;;;;9.30;99.90;;;;;;2061166;28;20352;-83
2024/03/23 03:11:03;;;;;;;;;;;9.30;99.90;;;;;;2069867;28;20484;-83
2024/03/23 03:12:05;;;;;;;;;;;9.40;99.90;;;;;;2056418;28;20114;-83
2024/03/23 03:13:07;;;;;;;;;;;9.40;99.90;;;;;;2045822;28;20365;-83
2024/03/23 03:14:09;;;;;;;;;;;9.40;99.90;;;;;;2052881;28;19953;-83
2024/03/23 03:15:10;;;;;;;;;;;9.40;99.90;;;;;;2056077;28;20217;-84
2024/03/23 03:16:12;;;;;;;;;;;9.40;99.90;;;;;;2048602;28;19914;-80
2024/03/23 03:17:15;;;;;;;;;;;9.40;99.90;;;;;;2053106;28;19950;-83
2024/03/23 03:18:16;;;;;;;;;;;9.40;99.90;;;;;;2044834;28;19921;-82
2024/03/23 03:19:17;;;;;;;;;;;9.40;99.90;;;;;;2048702;28;19925;-83
2024/03/23 03:20:18;;;;;;;;;;;9.40;99.90;;;;;;2044583;28;19973;-83
2024/03/23 03:21:23;;;;;;;;;;;9.40;99.90;;;;;;2045347;28;20173;-82
2024/03/23 03:22:24;;;;;;;;;;;9.40;99.90;;;;;;2047519;28;19922;-82
2024/03/23 03:23:25;;;;;;;;;;;9.50;99.90;;;;;;2063790;28;20357;-80
2024/03/23 03:24:25;;;;;;;;;;;9.50;99.90;;;;;;2063348;28;19973;-82
2024/03/23 03:25:28;;;;;;;;;;;9.40;99.90;;;;;;2044955;28;19993;-82
2024/03/23 03:26:29;;;;;;;;;;;9.40;99.90;;;;;;2046315;28;19958;-83
2024/03/23 03:27:30;;;;;;;;;;;9.40;99.90;;;;;;2054580;28;19930;-82
2024/03/23 03:28:34;;;;;;;;;;;9.40;99.90;;;;;;2052933;28;19964;-82
2024/03/23 03:29:37;;;;;;;;;;;9.40;99.90;;;;;;2061934;28;19921;-83
2024/03/23 03:30:41;;;;;;;;;;;9.40;99.90;;;;;;2063783;28;19913;-82
2024/03/23 03:31:44;;;;;;;;;;;9.40;99.90;;;;;;2058648;28;19925;-82
2024/03/23 03:32:45;;;;;;;;;;;9.40;99.90;;;;;;2060368;28;20008;-82
2024/03/23 03:33:46;;;;;;;;;;;9.40;99.90;;;;;;2052956;28;19918;-81
2024/03/23 03:34:49;;;;;;;;;;;9.40;99.90;;;;;;2060638;28;19913;-81
2024/03/23 03:35:51;;;;;;;;;;;9.40;99.90;;;;;;2059771;28;19953;-81
2024/03/23 03:36:52;;;;;;;;;;;9.50;99.90;;;;;;2052378;28;19914;-81
2024/03/23 03:37:53;;;;;;;;;;;9.40;99.90;;;;;;2052572;28;19918;-81
2024/03/23 03:38:54;;;;;;;;;;;9.50;99.90;;;;;;2060770;28;19918;-82
2024/03/23 03:39:54;;;;;;;;;;;9.50;99.90;;;;;;2060671;28;20367;-78
2024/03/23 03:40:55;;;;;;;;;;;9.50;99.90;;;;;;2059206;28;19914;-75
2024/03/23 03:41:55;;;;;;;;;;;9.60;99.90;;;;;;2067517;28;19920;-76
2024/03/23 03:42:56;;;;;;;;;;;9.50;99.90;;;;;;2068059;28;19925;-77
2024/03/23 03:44:01;;;;;;;;;;;9.50;99.90;;;;;;2068012;28;19921;-76
2024/03/23 03:45:01;;;;;;;;;;;9.50;99.90;;;;;;2067677;28;20008;-78
2024/03/23 03:46:02;;;;;;;;;;;9.50;99.90;;;;;;2067061;28;20379;-77
2024/03/23 03:47:03;;;;;;;;;;;9.50;99.90;;;;;;2058870;28;20017;-78
2024/03/23 03:48:03;;;;;;;;;;;9.50;99.90;;;;;;2058946;28;19918;-77
2024/03/23 03:49:04;;;;;;;;;;;9.40;99.90;;;;;;2068310;28;20360;-77
2024/03/23 03:50:05;;;;;;;;;;;9.40;99.90;;;;;;2068158;28;19913;-77
2024/03/23 03:51:06;;;;;;;;;;;9.40;99.90;;;;;;2067045;28;20506;-77
2024/03/23 03:52:06;;;;;;;;;;;9.30;99.90;;;;;;2067382;28;19937;-78
2024/03/23 03:53:07;;;;;;;;;;;9.30;99.90;;;;;;2068072;28;19928;-77
2024/03/23 03:54:07;;;;;;;;;;;9.40;99.90;;;;;;2067905;28;20308;-77
2024/03/23 03:55:12;;;;;;;;;;;9.40;99.90;;;;;;2068143;28;19917;-77
2024/03/23 03:56:13;;;;;;;;;;;9.30;99.90;;;;;;2068053;28;20000;-76
2024/03/23 03:57:13;;;;;;;;;;;9.40;99.90;;;;;;2063672;28;19917;-78
2024/03/23 03:58:14;;;;;;;;;;;9.40;99.90;;;;;;2058913;28;19975;-77
2024/03/23 03:59:15;;;;;;;;;;;9.40;99.90;;;;;;2067136;28;20017;-77
2024/03/23 04:00:15;;;;;;;;;;;9.40;99.90;;;;;;2067227;28;19914;-76
2024/03/23 04:01:16;;;;;;;;;;;9.40;99.90;;;;;;2067163;28;20363;-77
2024/03/23 04:02:16;;;;;;;;;;;9.40;99.90;;;;;;2061685;28;20008;-78
2024/03/23 04:03:17;;;;;;;;;;;9.40;99.90;;;;;;2052218;28;19922;-79
2024/03/23 04:04:17;;;;;;;;;;;9.50;99.90;;;;;;2074918;28;19913;-76
2024/03/23 04:05:19;;;;;;;;;;;9.40;99.90;;;;;;2067366;28;19918;-77
2024/03/23 04:06:20;;;;;;;;;;;9.40;99.90;;;;;;2058922;28;19917;-76
2024/03/23 04:07:22;;;;;;;;;;;9.40;99.90;;;;;;2066975;28;20016;-76
2024/03/23 04:08:23;;;;;;;;;;;9.40;99.90;;;;;;2067751;28;19913;-76
2024/03/23 04:09:24;;;;;;;;;;;9.40;99.90;;;;;;2067934;28;20460;-76
2024/03/23 04:10:24;;;;;;;;;;;9.40;99.90;;;;;;2067297;28;19953;-79
2024/03/23 04:11:25;;;;;;;;;;;9.40;99.90;;;;;;2054625;28;19968;-79
2024/03/23 04:12:25;;;;;;;;;;;9.40;99.90;;;;;;2058977;28;20277;-77
2024/03/23 04:13:26;;;;;;;;;;;9.40;99.90;;;;;;2064508;28;19975;-77
2024/03/23 04:14:26;;;;;;;;;;;9.40;99.90;;;;;;2062686;28;20572;-77
2024/03/23 04:15:27;;;;;;;;;;;9.50;99.90;;;;;;2059713;28;19913;-77
2024/03/23 04:16:28;;;;;;;;;;;9.50;99.90;;;;;;2063826;28;19925;-77
2024/03/23 04:17:31;;;;;;;;;;;9.50;99.90;;;;;;2067657;28;19917;-77
2024/03/23 04:18:32;;;;;;;;;;;9.50;99.90;;;;;;2067788;28;19913;-77
2024/03/23 04:19:32;;;;;;;;;;;9.40;99.90;;;;;;2067604;28;19917;-77
2024/03/23 04:20:33;;;;;;;;;;;9.40;99.90;;;;;;2067847;28;19921;-77
2024/03/23 04:21:34;;;;;;;;;;;9.40;99.90;;;;;;2067690;28;19927;-76
2024/03/23 04:22:34;;;;;;;;;;;9.50;99.90;;;;;;2066787;28;20582;-77
2024/03/23 04:23:35;;;;;;;;;;;9.50;99.90;;;;;;2067143;28;19924;-78
2024/03/23 04:24:36;;;;;;;;;;;9.50;99.90;;;;;;2067067;28;19941;-78
2024/03/23 04:25:36;;;;;;;;;;;9.40;99.90;;;;;;2058959;28;19968;-78
2024/03/23 04:26:43;;;;;;;;;;;9.40;99.90;;;;;;2066596;28;20358;-78
2024/03/23 04:27:43;;;;;;;;;;;9.40;99.90;;;;;;2068093;28;20403;-77
2024/03/23 04:28:44;;;;;;;;;;;9.30;99.90;;;;;;2066994;28;19921;-77
2024/03/23 04:29:51;;;;;;;;;;;9.20;99.90;;;;;;2066874;28;20392;-70
2024/03/23 04:30:51;;;;;;;;;;;9.20;99.90;;;;;;2065504;28;19985;-78
2024/03/23 04:31:52;;;;;;;;;;;9.20;99.90;;;;;;2065443;28;19913;-77
2024/03/23 04:32:52;;;;;;;;;;;9.10;99.90;;;;;;2067814;28;19921;-80
2024/03/23 04:33:52;;;;;;;;;;;9.10;99.90;;;;;;2067500;28;20390;-79
2024/03/23 04:34:54;;;;;;;;;;;9.00;99.90;;;;;;2067128;28;19917;-80
2024/03/23 04:35:54;;;;;;;;;;;9.00;99.90;;;;;;2067791;28;19972;-79
2024/03/23 04:36:55;;;;;;;;;;;8.90;99.90;;;;;;2067653;28;20079;-79
2024/03/23 04:37:55;;;;;;;;;;;8.90;99.90;;;;;;2068100;28;19941;-79
2024/03/23 04:38:59;;;;;;;;;;;8.80;99.90;;;;;;2068104;28;20336;-80
2024/03/23 04:40:01;;;;;;;;;;;8.80;99.90;;;;;;2067390;28;19980;-79
2024/03/23 04:41:02;;;;;;;;;;;8.80;99.90;;;;;;2059596;28;19914;-77
2024/03/23 04:42:03;;;;;;;;;;;8.80;99.90;;;;;;2067077;28;20340;-79
2024/03/23 04:43:04;;;;;;;;;;;8.80;99.90;;;;;;2062707;28;19918;-79
2024/03/23 04:44:04;;;;;;;;;;;8.80;99.90;;;;;;2059479;28;19921;-78
2024/03/23 04:45:06;;;;;;;;;;;8.80;99.90;;;;;;2064255;28;20368;-79
2024/03/23 04:46:06;;;;;;;;;;;8.90;99.90;;;;;;2068146;28;20449;-79
2024/03/23 04:47:07;;;;;;;;;;;8.90;99.90;;;;;;2067450;28;19976;-79
2024/03/23 04:48:08;;;;;;;;;;;8.90;99.90;;;;;;2067502;28;20693;-79
2024/03/23 04:49:08;;;;;;;;;;;8.90;99.90;;;;;;2067421;28;20325;-80
2024/03/23 04:50:10;;;;;;;;;;;8.90;99.90;;;;;;2068004;28;19920;-80
2024/03/23 04:51:13;;;;;;;;;;;8.90;99.90;;;;;;2068514;28;19940;-80
2024/03/23 04:52:15;;;;;;;;;;;9.00;99.90;;;;;;2068304;28;19913;-80
2024/03/23 04:53:17;;;;;;;;;;;9.00;99.90;;;;;;2067269;28;20004;-80
2024/03/23 04:54:17;;;;;;;;;;;9.00;99.90;;;;;;2067303;28;20374;-79
2024/03/23 04:55:18;;;;;;;;;;;9.00;99.90;;;;;;2067159;28;19925;-79
2024/03/23 04:56:18;;;;;;;;;;;9.00;99.90;;;;;;2067328;28;19917;-79
2024/03/23 04:57:19;;;;;;;;;;;9.10;99.90;;;;;;2068312;28;19921;-79
2024/03/23 04:58:23;;;;;;;;;;;9.00;99.90;;;;;;2068451;28;19921;-79
2024/03/23 04:59:23;;;;;;;;;;;9.00;99.90;;;;;;2067981;28;19925;-79
2024/03/23 05:00:24;;;;;;;;;;;9.00;99.90;;;;;;2067758;28;19913;-81
2024/03/23 05:01:25;;;;;;;;;;;9.10;99.90;;;;;;2067882;28;19924;-79
2024/03/23 05:02:27;;;;;;;;;;;9.10;99.90;;;;;;2067515;28;20272;-80
2024/03/23 05:03:27;;;;;;;;;;;9.00;99.90;;;;;;2067867;28;19924;-79
2024/03/23 05:04:28;;;;;;;;;;;9.00;99.90;;;;;;2067703;28;19924;-79
2024/03/23 05:05:28;;;;;;;;;;;9.10;99.90;;;;;;2068015;28;19921;-82
2024/03/23 05:06:29;;;;;;;;;;;9.00;99.90;;;;;;2067902;28;19976;-80
2024/03/23 05:07:29;;;;;;;;;;;9.00;99.90;;;;;;2067606;28;20253;-80
2024/03/23 05:08:30;;;;;;;;;;;9.00;99.90;;;;;;2068083;28;19925;-80
2024/03/23 05:09:30;;;;;;;;;;;8.90;99.90;;;;;;2063842;28;20386;-79
2024/03/23 05:10:32;;;;;;;;;;;8.90;99.90;;;;;;2059007;28;19914;-78
2024/03/23 05:11:33;;;;;;;;;;;9.00;99.90;;;;;;2067167;28;19948;-79
2024/03/23 05:12:33;;;;;;;;;;;9.00;99.90;;;;;;2066721;28;20422;-80
2024/03/23 05:13:34;;;;;;;;;;;8.90;99.90;;;;;;2067609;28;20367;-80
2024/03/23 05:14:34;;;;;;;;;;;9.00;99.90;;;;;;2068543;28;19922;-79
2024/03/23 05:15:35;;;;;;;;;;;8.90;99.90;;;;;;2070808;28;19948;-80
2024/03/23 05:16:35;;;;;;;;;;;8.90;99.90;;;;;;2075417;28;19939;-80
2024/03/23 05:17:37;;;;;;;;;;;8.90;99.90;;;;;;2075743;28;19952;-78
2024/03/23 05:18:37;;;;;;;;;;;8.90;99.90;;;;;;2067174;28;20351;-80
2024/03/23 05:19:38;;;;;;;;;;;8.90;99.90;;;;;;2066935;28;19918;-80
2024/03/23 05:20:39;;;;;;;;;;;8.90;99.90;;;;;;2069015;28;19937;-80
2024/03/23 05:21:39;;;;;;;;;;;8.80;99.90;;;;;;2070540;28;19914;-80
2024/03/23 05:22:40;;;;;;;;;;;8.80;99.90;;;;;;2067552;28;19971;-79
2024/03/23 05:23:40;;;;;;;;;;;8.90;99.90;;;;;;2059018;28;20004;-80
2024/03/23 05:24:41;;;;;;;;;;;8.90;99.90;;;;;;2058938;28;20307;-80
2024/03/23 05:25:41;;;;;;;;;;;8.90;99.90;;;;;;2066660;28;19913;-79
2024/03/23 05:26:42;;;;;;;;;;;9.00;99.90;;;;;;2067007;28;19921;-80
2024/03/23 05:27:42;;;;;;;;;;;9.00;99.90;;;;;;2066971;28;20742;-80
2024/03/23 05:28:43;;;;;;;;;;;9.00;99.90;;;;;;2067029;28;19922;-79
2024/03/23 05:29:44;;;;;;;;;;;9.10;99.90;;;;;;2067053;28;20342;-79
2024/03/23 05:30:49;;;;;;;;;;;9.10;99.90;;;;;;2062383;28;20051;-80
2024/03/23 05:31:51;;;;;;;;;;;9.10;99.90;;;;;;2064715;28;20076;-80
2024/03/23 05:32:52;;;;;;;;;;;9.20;99.90;;;;;;2067369;28;19917;-80
2024/03/23 05:33:52;;;;;;;;;;;9.20;99.90;;;;;;2066725;28;20008;-80
2024/03/23 05:34:55;;;;;;;;;;;9.10;99.90;;;;;;2067395;28;19964;-80
2024/03/23 05:35:56;;;;;;;;;;;9.20;99.90;;;;;;2067683;28;20007;-79
2024/03/23 05:36:57;;;;;;;;;;;9.10;99.90;;;;;;2066924;28;20431;-80
2024/03/23 05:37:58;;;;;;;;;;;9.10;99.90;;;;;;2066930;28;19952;-79
2024/03/23 05:38:58;;;;;;;;;;;9.20;99.90;;;;;;2068194;28;20548;-79
2024/03/23 05:39:59;;;;;;;;;;;9.10;99.90;;;;;;2073590;28;19914;-80
2024/03/23 05:41:00;;;;;;;;;;;9.10;99.90;;;;;;2064467;28;19964;-80
2024/03/23 05:42:01;;;;;;;;;;;9.20;99.90;;;;;;2063692;28;19918;-79
2024/03/23 05:43:01;;;;;;;;;;;9.20;99.90;;;;;;2068693;28;19943;-80
2024/03/23 05:44:02;;;;;;;;;;;9.20;99.90;;;;;;2069061;28;19922;-80
2024/03/23 05:45:06;;;;;;;;;;;9.20;99.90;;;;;;2064048;28;19987;-80
2024/03/23 05:46:07;;;;;;;;;;;9.20;99.90;;;;;;2057251;28;20005;-78
2024/03/23 05:47:08;;;;;;;;;;;9.10;99.90;;;;;;2069467;28;19920;-80
2024/03/23 05:48:08;;;;;;;;;;;9.20;99.90;;;;;;2075290;28;19925;-79
2024/03/23 05:49:09;;;;;;;;;;;9.20;99.90;;;;;;2075194;28;20086;-80
2024/03/23 05:50:12;;;;;;;;;;;9.20;99.90;;;;;;2077534;28;19901;-80
2024/03/23 05:51:12;;;;;;;;;;;9.20;99.90;;;;;;2077013;28;19944;-79
2024/03/23 05:52:13;;;;;;;;;;;9.20;99.90;;;;;;2074383;28;19921;-79
2024/03/23 05:53:14;;;;;;;;;;;9.20;99.90;;;;;;2075133;28;19955;-80
2024/03/23 05:54:15;;;;;;;;;;;9.20;99.90;;;;;;2075015;28;20380;-79
2024/03/23 05:55:16;;;;;;;;;;;9.30;99.90;;;;;;2074948;28;20233;-79
2024/03/23 05:56:19;;;;;;;;;;;9.30;99.90;;;;;;2076010;28;20272;-79
2024/03/23 05:57:20;;;;;;;;;;;9.30;99.90;;;;;;2076458;28;19924;-80
2024/03/23 05:58:20;;;;;;;;;;;9.30;99.90;;;;;;2076125;28;20085;-80
2024/03/23 05:59:21;;;;;;;;;;;9.30;99.90;;;;;;2079512;28;19917;-80